createdAt,value
2023-02-22T00:00:59.917Z,39.03
2023-02-22T00:03:32.394Z,39.23
2023-02-22T00:06:04.182Z,41.67
2023-02-22T00:08:34.291Z,42.30
2023-02-22T00:11:08.424Z,40.37
2023-02-22T00:13:37.066Z,42.77
2023-02-22T00:16:06.262Z,42.90
2023-02-22T00:18:34.357Z,44.90
2023-02-22T00:21:04.920Z,44.80
2023-02-22T00:23:35.181Z,44.77
2023-02-22T00:26:04.860Z,41.70
2023-02-22T00:28:33.039Z,43.17
2023-02-22T00:31:05.276Z,44.83
2023-02-22T00:33:33.349Z,43.60
2023-02-22T00:36:01.449Z,45.40
2023-02-22T00:38:29.426Z,43.90
2023-02-22T00:40:57.481Z,43.43
2023-02-22T00:43:27.301Z,46.23
2023-02-22T00:45:55.345Z,45.73
2023-02-22T00:48:23.465Z,46.70
2023-02-22T00:50:55.265Z,43.87
2023-02-22T00:53:25.060Z,43.77
2023-02-22T00:55:53.917Z,41.97
2023-02-22T00:58:25.067Z,40.10
2023-02-22T01:00:54.702Z,40.53
2023-02-22T01:03:22.855Z,39.90
2023-02-22T01:05:51.080Z,38.77
2023-02-22T01:08:19.255Z,36.43
2023-02-22T01:10:47.632Z,37.80
2023-02-22T01:13:15.585Z,37.70
2023-02-22T01:15:45.287Z,36.27
2023-02-22T01:18:17.279Z,36.87
2023-02-22T01:20:47.913Z,34.53
2023-02-22T01:23:18.486Z,34.40
2023-02-22T01:25:46.841Z,35.53
2023-02-22T01:28:15.911Z,34.83
2023-02-22T01:30:43.963Z,37.47
2023-02-22T01:33:13.050Z,35.17
2023-02-22T01:35:43.694Z,34.73
2023-02-22T01:38:12.128Z,33.83
2023-02-22T01:40:45.362Z,34.43
2023-02-22T01:43:20.074Z,34.20
2023-02-22T01:45:51.544Z,34.93
2023-02-22T01:48:24.741Z,31.80
2023-02-22T01:50:57.673Z,32.83
2023-02-22T01:53:30.389Z,33.80
2023-02-22T01:55:59.170Z,35.83
2023-02-22T01:58:27.761Z,34.23
2023-02-22T02:00:57.632Z,33.73
2023-02-22T02:03:28.605Z,31.93
2023-02-22T02:06:00.501Z,35.23
2023-02-22T02:08:36.007Z,32.57
2023-02-22T02:11:09.153Z,32.80
2023-02-22T02:13:37.759Z,33.13
2023-02-22T02:16:06.446Z,31.90
2023-02-22T02:18:34.484Z,30.77
2023-02-22T02:21:37.956Z,31.87
2023-02-22T02:24:33.843Z,29.23
2023-02-22T02:27:25.716Z,28.43
2023-02-22T02:30:36.042Z,29.57
2023-02-22T02:33:07.842Z,29.10
2023-02-22T02:35:46.338Z,30.30
2023-02-22T02:38:23.097Z,29.77
2023-02-22T02:40:56.642Z,30.73
2023-02-22T02:43:30.021Z,31.17
2023-02-22T02:46:07.556Z,28.60
2023-02-22T02:48:41.086Z,29.03
2023-02-22T02:51:10.964Z,30.77
2023-02-22T02:53:45.263Z,30.93
2023-02-22T02:56:13.362Z,30.73
2023-02-22T02:58:49.127Z,29.47
2023-02-22T03:01:23.997Z,27.13
2023-02-22T03:04:10.142Z,28.63
2023-02-22T03:07:00.279Z,26.60
2023-02-22T03:09:39.728Z,26.47
2023-02-22T03:12:20.054Z,25.97
2023-02-22T03:14:55.951Z,27.20
2023-02-22T03:17:33.300Z,26.30
2023-02-22T03:20:10.647Z,24.40
2023-02-22T03:22:44.213Z,25.10
2023-02-22T03:25:16.260Z,25.50
2023-02-22T03:27:46.523Z,25.03
2023-02-22T03:30:19.367Z,23.80
2023-02-22T03:32:59.830Z,24.50
2023-02-22T03:35:32.520Z,24.30
2023-02-22T03:38:03.932Z,25.90
2023-02-22T03:40:34.798Z,25.93
2023-02-22T03:43:08.629Z,26.53
2023-02-22T03:45:43.458Z,27.13
2023-02-22T03:48:21.482Z,27.17
2023-02-22T03:50:52.209Z,26.20
2023-02-22T03:53:23.242Z,28.63
2023-02-22T03:55:55.720Z,26.40
2023-02-22T03:58:25.167Z,26.30
2023-02-22T04:00:54.020Z,27.97
2023-02-22T04:03:22.627Z,27.57
2023-02-22T04:05:55.926Z,27.90
2023-02-22T04:08:25.008Z,27.97
2023-02-22T04:10:53.655Z,26.60
2023-02-22T04:13:24.785Z,26.80
2023-02-22T04:15:54.957Z,27.20
2023-02-22T04:18:26.350Z,27.43
2023-02-22T04:20:55.882Z,27.43
2023-02-22T04:23:38.084Z,25.53
2023-02-22T04:26:06.611Z,26.80
2023-02-22T04:28:34.566Z,27.37
2023-02-22T04:31:12.288Z,26.60
2023-02-22T04:33:40.666Z,26.57
2023-02-22T04:36:13.521Z,26.80
2023-02-22T04:38:41.684Z,25.80
2023-02-22T04:41:09.690Z,26.93
2023-02-22T04:43:41.260Z,27.87
2023-02-22T04:46:18.028Z,25.63
2023-02-22T04:48:46.389Z,27.50
2023-02-22T04:51:17.567Z,26.87
2023-02-22T04:54:03.897Z,26.37
2023-02-22T04:56:34.098Z,26.77
2023-02-22T04:59:02.042Z,28.10
2023-02-22T05:01:33.641Z,27.00
2023-02-22T05:04:03.042Z,26.63
2023-02-22T05:06:32.541Z,27.07
2023-02-22T05:09:00.911Z,25.57
2023-02-22T05:11:28.975Z,25.53
2023-02-22T05:13:57.205Z,25.33
2023-02-22T05:16:25.339Z,25.17
2023-02-22T05:18:53.407Z,23.77
2023-02-22T05:21:21.575Z,23.63
2023-02-22T05:23:50.916Z,23.70
2023-02-22T05:26:19.001Z,23.13
2023-02-22T05:28:48.719Z,23.23
2023-02-22T05:31:17.626Z,22.67
2023-02-22T05:33:45.844Z,24.07
2023-02-22T05:36:13.839Z,24.40
2023-02-22T05:38:44.769Z,24.10
2023-02-22T05:41:14.954Z,26.47
2023-02-22T05:43:43.008Z,25.47
2023-02-22T05:46:11.228Z,24.83
2023-02-22T05:48:41.486Z,26.73
2023-02-22T05:51:09.715Z,24.67
2023-02-22T05:53:38.189Z,24.80
2023-02-22T05:56:06.983Z,23.83
2023-02-22T05:58:36.439Z,24.63
2023-02-22T06:01:04.431Z,26.47
2023-02-22T06:03:32.349Z,24.43
2023-02-22T06:06:00.502Z,26.93
2023-02-22T06:08:28.546Z,26.03
2023-02-22T06:10:57.289Z,26.77
2023-02-22T06:16:37.222Z,26.63
2023-02-22T06:19:05.472Z,28.47
2023-02-22T06:21:33.471Z,27.07
2023-02-22T06:24:04.061Z,25.37
2023-02-22T06:26:32.043Z,25.13
2023-02-22T06:29:00.030Z,24.07
2023-02-22T06:31:28.009Z,24.87
2023-02-22T06:33:57.429Z,25.30
2023-02-22T06:36:25.737Z,24.17
2023-02-22T06:38:53.784Z,22.67
2023-02-22T06:41:21.772Z,24.33
2023-02-22T06:43:49.980Z,23.13
2023-02-22T06:46:19.459Z,23.07
2023-02-22T06:48:47.399Z,24.37
2023-02-22T06:51:17.010Z,22.03
2023-02-22T06:53:45.149Z,23.47
2023-02-22T06:56:13.073Z,23.50
2023-02-22T06:58:41.028Z,22.30
2023-02-22T07:01:13.962Z,24.20
2023-02-22T07:03:45.383Z,22.40
2023-02-22T07:06:13.563Z,23.27
2023-02-22T07:12:21.038Z,23.00
2023-02-22T07:14:49.030Z,22.77
2023-02-22T07:17:17.004Z,24.20
2023-02-22T07:19:44.999Z,22.90
2023-02-22T07:22:13.085Z,21.70
2023-02-22T07:24:42.447Z,23.17
2023-02-22T07:27:10.443Z,23.33
2023-02-22T07:29:38.470Z,23.97
2023-02-22T07:32:07.090Z,21.70
2023-02-22T07:34:35.139Z,23.33
2023-02-22T07:37:03.096Z,22.63
2023-02-22T07:39:31.293Z,22.43
2023-02-22T07:42:00.702Z,22.67
2023-02-22T07:44:30.540Z,22.67
2023-02-22T07:46:58.517Z,22.80
2023-02-22T07:49:26.529Z,22.90
2023-02-22T07:51:54.592Z,22.00
2023-02-22T07:54:22.542Z,21.87
2023-02-22T07:56:50.586Z,22.43
2023-02-22T07:59:21.723Z,22.17
2023-02-22T08:01:50.908Z,21.87
2023-02-22T08:04:18.862Z,21.83
2023-02-22T08:06:46.806Z,22.13
2023-02-22T08:09:14.746Z,22.70
2023-02-22T08:11:42.772Z,20.77
2023-02-22T08:14:10.821Z,21.40
2023-02-22T08:16:40.360Z,20.83
2023-02-22T08:19:08.390Z,20.80
2023-02-22T08:21:36.439Z,20.70
2023-02-22T08:24:04.743Z,20.30
2023-02-22T08:26:32.721Z,22.33
2023-02-22T08:29:00.837Z,20.73
2023-02-22T08:31:28.864Z,20.57
2023-02-22T08:33:58.548Z,20.63
2023-02-22T08:36:27.171Z,20.50
2023-02-22T08:38:55.402Z,21.73
2023-02-22T08:41:23.428Z,21.40
2023-02-22T08:43:51.451Z,20.67
2023-02-22T08:46:19.467Z,20.17
2023-02-22T08:48:54.144Z,20.67
2023-02-22T08:51:23.596Z,20.60
2023-02-22T08:53:51.548Z,20.30
2023-02-22T08:56:19.559Z,19.37
2023-02-22T08:58:47.524Z,20.00
2023-02-22T09:01:19.313Z,19.73
2023-02-22T09:03:50.264Z,19.33
2023-02-22T09:06:18.317Z,20.23
2023-02-22T09:08:47.715Z,19.07
2023-02-22T09:11:16.187Z,19.03
2023-02-22T09:13:44.324Z,19.27
2023-02-22T09:16:12.434Z,19.40
2023-02-22T09:18:44.350Z,17.37
2023-02-22T09:21:13.246Z,18.40
2023-02-22T09:23:41.554Z,17.67
2023-02-22T09:26:11.424Z,17.20
2023-02-22T09:28:39.614Z,16.53
2023-02-22T09:31:07.651Z,17.53
2023-02-22T09:33:36.044Z,16.53
2023-02-22T09:36:04.156Z,16.60
2023-02-22T09:38:32.776Z,15.17
2023-02-22T09:41:12.453Z,15.80
2023-02-22T09:43:43.394Z,15.17
2023-02-22T09:46:20.341Z,14.80
2023-02-22T09:48:58.302Z,14.57
2023-02-22T09:51:28.274Z,14.70
2023-02-22T09:53:58.939Z,12.60
2023-02-22T09:56:29.173Z,9.10
2023-02-22T09:59:01.087Z,8.20
2023-02-22T10:01:32.566Z,7.90
2023-02-22T10:04:13.549Z,8.00
2023-02-22T10:07:02.075Z,7.90
2023-02-22T10:09:30.608Z,7.50
2023-02-22T10:12:01.914Z,7.10
2023-02-22T10:14:43.910Z,7.37
2023-02-22T10:17:22.416Z,6.77
2023-02-22T10:20:04.902Z,6.37
2023-02-22T10:22:48.410Z,6.13
2023-02-22T10:25:19.712Z,6.83
2023-02-22T10:27:57.506Z,6.63
2023-02-22T10:30:28.453Z,6.17
2023-02-22T10:33:26.614Z,6.63
2023-02-22T10:35:58.540Z,6.40
2023-02-22T10:38:28.188Z,6.63
2023-02-22T10:40:58.226Z,6.23
2023-02-22T10:43:28.153Z,6.57
2023-02-22T10:45:58.251Z,6.90
2023-02-22T10:48:27.864Z,7.07
2023-02-22T10:51:00.300Z,6.67
2023-02-22T10:53:28.967Z,7.03
2023-02-22T10:56:08.188Z,6.67
2023-02-22T10:58:48.389Z,6.87
2023-02-22T11:01:29.802Z,6.63
2023-02-22T11:04:13.988Z,8.10
2023-02-22T11:06:48.359Z,6.87
2023-02-22T11:09:29.532Z,6.90
2023-02-22T11:12:13.514Z,6.87
2023-02-22T11:14:45.203Z,6.57
2023-02-22T11:17:20.025Z,6.33
2023-02-22T11:19:49.065Z,6.63
2023-02-22T11:22:24.432Z,6.47
2023-02-22T11:24:57.604Z,6.40
2023-02-22T11:27:39.211Z,6.60
2023-02-22T11:30:26.247Z,6.77
2023-02-22T11:33:04.208Z,5.50
2023-02-22T11:35:41.300Z,5.93
2023-02-22T11:38:18.438Z,6.40
2023-02-22T11:40:47.330Z,6.90
2023-02-22T11:43:17.906Z,6.63
2023-02-22T11:46:13.312Z,6.67
2023-02-22T11:48:47.263Z,5.97
2023-02-22T11:51:35.725Z,7.10
2023-02-22T11:54:53.953Z,6.60
2023-02-22T11:57:32.061Z,7.30
2023-02-22T12:00:12.222Z,7.07
2023-02-22T12:02:57.288Z,6.63
2023-02-22T12:05:37.255Z,6.43
2023-02-22T12:08:20.041Z,6.50
2023-02-22T12:11:02.468Z,7.33
2023-02-22T12:13:38.355Z,7.03
2023-02-22T12:16:15.759Z,6.53
2023-02-22T12:19:03.184Z,6.87
2023-02-22T12:21:32.478Z,6.60
2023-02-22T12:24:03.724Z,6.47
2023-02-22T12:26:58.778Z,6.30
2023-02-22T12:29:30.525Z,6.80
2023-02-22T12:32:03.432Z,6.67
2023-02-22T12:34:38.251Z,6.43
2023-02-22T12:37:13.621Z,6.83
2023-02-22T12:39:53.516Z,7.00
2023-02-22T12:42:26.589Z,6.60
2023-02-22T12:44:58.746Z,7.00
2023-02-22T12:47:34.080Z,7.27
2023-02-22T12:50:09.389Z,6.57
2023-02-22T12:52:44.058Z,7.80
2023-02-22T12:55:17.168Z,7.53
2023-02-22T12:57:49.252Z,7.27
2023-02-22T13:00:26.408Z,6.90
2023-02-22T13:03:01.537Z,7.07
2023-02-22T13:05:34.909Z,6.87
2023-02-22T13:08:23.526Z,7.13
2023-02-22T13:10:59.078Z,7.07
2023-02-22T13:13:33.969Z,7.20
2023-02-22T13:16:08.820Z,7.10
2023-02-22T13:18:41.327Z,6.70
2023-02-22T13:21:16.959Z,7.40
2023-02-22T13:23:49.051Z,6.87
2023-02-22T13:26:21.738Z,6.57
2023-02-22T13:28:53.735Z,7.90
2023-02-22T13:31:37.192Z,7.33
2023-02-22T13:34:30.678Z,7.30
2023-02-22T13:37:14.194Z,7.20
2023-02-22T13:40:03.451Z,6.90
2023-02-22T13:42:46.450Z,6.63
2023-02-22T13:45:44.976Z,6.67
2023-02-22T13:48:51.348Z,6.80
2023-02-22T13:51:33.685Z,7.43
2023-02-22T13:54:06.066Z,8.43
2023-02-22T13:56:34.200Z,8.13
2023-02-22T13:59:04.489Z,8.60
2023-02-22T14:01:45.773Z,8.30
2023-02-22T14:04:45.576Z,8.47
2023-02-22T14:07:57.017Z,7.80
2023-02-22T14:10:46.681Z,8.47
2023-02-22T14:13:16.173Z,9.37
2023-02-22T14:16:19.010Z,9.70
2023-02-22T14:18:49.477Z,9.57
2023-02-22T14:21:19.492Z,9.90
2023-02-22T14:23:48.866Z,9.73
2023-02-22T14:26:22.991Z,10.03
2023-02-22T14:28:54.543Z,9.30
2023-02-22T14:31:35.374Z,10.33
2023-02-22T14:34:08.042Z,9.93
2023-02-22T14:36:42.747Z,10.43
2023-02-22T14:39:16.974Z,9.63
2023-02-22T14:41:51.605Z,10.20
2023-02-22T14:44:25.021Z,9.93
2023-02-22T14:46:53.917Z,9.53
2023-02-22T14:49:24.724Z,10.07
2023-02-22T14:51:56.015Z,9.57
2023-02-22T14:54:30.565Z,9.00
2023-02-22T14:57:14.880Z,9.50
2023-02-22T14:59:52.257Z,9.50
2023-02-22T15:02:26.961Z,9.47
2023-02-22T15:04:56.413Z,9.50
2023-02-22T15:07:27.661Z,8.67
2023-02-22T15:10:25.066Z,10.10
2023-02-22T15:13:09.285Z,9.47
2023-02-22T15:15:39.864Z,9.10
2023-02-22T15:18:20.401Z,9.07
2023-02-22T15:20:55.867Z,8.77
2023-02-22T15:23:26.509Z,10.07
2023-02-22T15:25:55.018Z,9.80
2023-02-22T15:28:25.770Z,9.60
2023-02-22T15:31:18.328Z,9.70
2023-02-22T15:33:47.047Z,9.80
2023-02-22T15:36:16.886Z,9.90
2023-02-22T15:38:49.195Z,10.10
2023-02-22T15:41:28.340Z,10.50
2023-02-22T15:44:17.646Z,10.83
2023-02-22T15:46:49.584Z,10.30
2023-02-22T15:49:23.300Z,9.93
2023-02-22T15:52:03.986Z,10.47
2023-02-22T15:54:39.392Z,10.20
2023-02-22T15:57:07.501Z,10.33
2023-02-22T15:59:43.278Z,10.13
2023-02-22T16:02:22.287Z,10.53
2023-02-22T16:04:59.309Z,10.40
2023-02-22T16:07:27.948Z,10.03
2023-02-22T16:09:56.098Z,10.00
2023-02-22T16:12:27.436Z,12.03
2023-02-22T16:14:57.591Z,11.40
2023-02-22T16:17:31.109Z,10.63
2023-02-22T16:19:59.814Z,10.53
2023-02-22T16:22:33.665Z,11.43
2023-02-22T16:25:27.301Z,11.53
2023-02-22T16:28:01.594Z,10.83
2023-02-22T16:30:33.484Z,10.57
2023-02-22T16:33:06.024Z,10.20
2023-02-22T16:35:37.258Z,11.07
2023-02-22T16:38:06.800Z,10.27
2023-02-22T16:40:41.538Z,11.63
2023-02-22T16:43:13.103Z,10.63
2023-02-22T16:45:42.765Z,11.37
2023-02-22T16:48:16.759Z,10.27
2023-02-22T16:50:44.966Z,10.87
2023-02-22T16:53:19.957Z,10.90
2023-02-22T16:55:48.603Z,11.30
2023-02-22T16:58:21.657Z,11.10
2023-02-22T17:00:51.308Z,12.23
2023-02-22T17:03:19.902Z,11.80
2023-02-22T17:05:48.172Z,12.33
2023-02-22T17:08:17.006Z,11.33
2023-02-22T17:10:46.351Z,11.97
2023-02-22T17:13:23.638Z,13.47
2023-02-22T17:15:54.943Z,11.53
2023-02-22T17:18:26.053Z,12.27
2023-02-22T17:20:54.950Z,12.27
2023-02-22T17:23:24.295Z,12.00
2023-02-22T17:25:54.496Z,11.93
2023-02-22T17:28:23.648Z,12.07
2023-02-22T17:30:53.593Z,11.60
2023-02-22T17:33:26.932Z,11.83
2023-02-22T17:35:55.653Z,11.83
2023-02-22T17:38:23.681Z,12.33
2023-02-22T17:40:52.536Z,11.70
2023-02-22T17:43:20.592Z,10.70
2023-02-22T17:45:48.694Z,11.63
2023-02-22T17:48:19.000Z,11.97
2023-02-22T17:50:49.417Z,11.60
2023-02-22T17:53:21.634Z,11.83
2023-02-22T17:55:49.958Z,11.53
2023-02-22T17:58:18.728Z,11.60
2023-02-22T18:00:50.295Z,14.37
2023-02-22T18:03:25.458Z,13.43
2023-02-22T18:05:59.069Z,12.23
2023-02-22T18:08:27.899Z,12.50
2023-02-22T18:10:57.332Z,12.23
2023-02-22T18:13:28.237Z,10.87
2023-02-22T18:16:00.045Z,12.90
2023-02-22T18:18:30.832Z,11.90
2023-02-22T18:21:02.415Z,11.27
2023-02-22T18:23:34.430Z,12.43
2023-02-22T18:26:11.069Z,12.47
2023-02-22T18:28:40.291Z,13.33
2023-02-22T18:31:09.402Z,13.03
2023-02-22T18:33:39.119Z,13.60
2023-02-22T18:36:08.160Z,12.70
2023-02-22T18:38:36.200Z,13.57
2023-02-22T18:41:06.086Z,13.37
2023-02-22T18:43:35.600Z,13.70
2023-02-22T18:46:08.191Z,12.70
2023-02-22T18:48:36.429Z,12.87
2023-02-22T18:51:09.795Z,12.97
2023-02-22T18:53:38.653Z,12.53
2023-02-22T18:56:08.500Z,13.17
2023-02-22T18:58:38.621Z,13.07
2023-02-22T19:01:07.830Z,13.63
2023-02-22T19:03:38.163Z,13.10
2023-02-22T19:06:11.943Z,13.33
2023-02-22T19:08:41.480Z,13.13
2023-02-22T19:11:12.551Z,12.43
2023-02-22T19:13:40.633Z,13.27
2023-02-22T19:16:09.106Z,13.23
2023-02-22T19:18:38.075Z,12.03
2023-02-22T19:21:13.171Z,12.00
2023-02-22T19:23:45.629Z,12.10
2023-02-22T19:26:18.716Z,12.83
2023-02-22T19:28:47.693Z,13.37
2023-02-22T19:31:18.381Z,13.03
2023-02-22T19:33:47.628Z,13.27
2023-02-22T19:36:17.553Z,12.27
2023-02-22T19:38:46.931Z,12.97
2023-02-22T19:41:18.485Z,13.70
2023-02-22T19:43:48.481Z,12.00
2023-02-22T19:46:18.123Z,12.90
2023-02-22T19:48:46.482Z,11.37
2023-02-22T19:51:17.748Z,11.70
2023-02-22T19:53:47.260Z,11.90
2023-02-22T19:56:16.982Z,12.27
2023-02-22T19:58:46.487Z,12.37
2023-02-22T20:01:15.054Z,11.70
2023-02-22T20:03:43.660Z,12.37
2023-02-22T20:06:12.655Z,12.43
2023-02-22T20:08:42.921Z,12.33
2023-02-22T20:11:12.008Z,11.83
2023-02-22T20:13:41.173Z,12.07
2023-02-22T20:16:11.047Z,12.33
2023-02-22T20:18:39.651Z,12.20
2023-02-22T20:21:09.568Z,12.93
2023-02-22T20:23:40.128Z,13.43
2023-02-22T20:26:15.783Z,13.47
2023-02-22T20:28:44.024Z,12.73
2023-02-22T20:31:13.809Z,12.67
2023-02-22T20:33:42.863Z,12.93
2023-02-22T20:36:12.786Z,13.13
2023-02-22T20:38:41.547Z,13.13
2023-02-22T20:41:14.702Z,13.30
2023-02-22T20:43:43.825Z,13.33
2023-02-22T20:46:12.235Z,13.00
2023-02-22T20:48:40.658Z,13.10
2023-02-22T20:51:10.654Z,14.07
2023-02-22T20:53:42.066Z,13.30
2023-02-22T20:56:17.085Z,14.10
2023-02-22T20:58:45.729Z,13.80
2023-02-22T21:01:17.319Z,13.33
2023-02-22T21:03:50.064Z,14.23
2023-02-22T21:06:21.532Z,14.50
2023-02-22T21:08:54.736Z,15.27
2023-02-22T21:11:26.651Z,14.73
2023-02-22T21:13:55.008Z,15.17
2023-02-22T21:16:25.273Z,14.63
2023-02-22T21:18:54.137Z,15.80
2023-02-22T21:21:22.822Z,15.83
2023-02-22T21:23:52.593Z,16.13
2023-02-22T21:26:23.559Z,15.67
2023-02-22T21:28:53.665Z,17.10
2023-02-22T21:31:23.836Z,16.37
2023-02-22T21:33:53.521Z,16.13
2023-02-22T21:36:25.505Z,16.73
2023-02-22T21:38:55.102Z,17.80
2023-02-22T21:41:27.369Z,17.17
2023-02-22T21:43:58.014Z,17.80
2023-02-22T21:46:26.624Z,17.53
2023-02-22T21:48:54.780Z,19.23
2023-02-22T21:51:25.385Z,19.43
2023-02-22T21:53:55.660Z,20.20
2023-02-22T21:56:27.530Z,18.87
2023-02-22T21:58:59.750Z,19.00
2023-02-22T22:01:29.410Z,20.93
2023-02-22T22:03:59.870Z,20.33
2023-02-22T22:06:29.279Z,19.80
2023-02-22T22:08:57.920Z,19.63
2023-02-22T22:11:25.997Z,21.77
2023-02-22T22:13:58.945Z,20.80
2023-02-22T22:16:29.717Z,21.53
2023-02-22T22:18:58.602Z,21.17
2023-02-22T22:21:27.061Z,22.33
2023-02-22T22:23:56.305Z,22.50
2023-02-22T22:26:25.921Z,23.57
2023-02-22T22:28:57.503Z,24.33
2023-02-22T22:31:26.808Z,24.70
2023-02-22T22:33:56.244Z,26.03
2023-02-22T22:36:26.713Z,26.33
2023-02-22T22:38:57.532Z,24.50
2023-02-22T22:41:28.107Z,25.97
2023-02-22T22:43:57.752Z,26.13
2023-02-22T22:46:25.962Z,26.50
2023-02-22T22:48:54.049Z,25.67
2023-02-22T22:51:22.649Z,27.23
2023-02-22T22:53:51.527Z,27.77
2023-02-22T22:56:20.985Z,26.70
2023-02-22T22:58:50.954Z,27.70
2023-02-22T23:01:26.922Z,27.63
2023-02-22T23:03:59.848Z,28.07
2023-02-22T23:06:30.912Z,27.67
2023-02-22T23:09:01.803Z,28.60
2023-02-22T23:11:33.645Z,28.40
2023-02-22T23:14:03.768Z,29.53
2023-02-22T23:16:33.347Z,28.80
2023-02-22T23:19:01.391Z,31.20
2023-02-22T23:21:29.536Z,32.30
2023-02-22T23:23:58.545Z,32.33
2023-02-22T23:26:27.654Z,32.87
2023-02-22T23:28:57.443Z,31.43
2023-02-22T23:31:26.335Z,31.67
2023-02-22T23:33:59.570Z,35.00
2023-02-22T23:36:28.269Z,35.30
2023-02-22T23:38:56.847Z,35.77
2023-02-22T23:41:28.649Z,36.00
2023-02-22T23:43:56.809Z,34.60
2023-02-22T23:46:26.999Z,35.73
2023-02-22T23:49:01.733Z,37.20
2023-02-22T23:51:39.080Z,36.23
2023-02-22T23:54:08.162Z,34.63
2023-02-22T23:56:39.299Z,35.63
2023-02-22T23:59:11.253Z,35.40
